Otagawa — JD3046 — position and weather

sailwx.info

Track history (hours):
 
Tides and Currents Weather Stations Pressure Air Temp Water Temp Dewpoint Dewpoint Depression Visibility Wind Speed Wind Dir Waves Ship Positions

Otagawa

Last reported at 2017-Nov-14 20:41 UTC. Time now 2017-Nov-19 14:19 UTC.
Position N 34°57' E 139°44'.

Length 70 m; draft 4.5 m.

Type: Cargo ship. MMSI: 431001328.

Date/timePositionNaut miles runAvg speedWind from/ knotsBaromVisibWave heightAir tempDewpointWater temp
2017-Nov-14 20:41N 34°57' E 139°44'211.2
2017-Nov-14 20:30N 34°59' E 139°43'611.8
2017-Nov-14 20:00N 35°05' E 139°45'611.7
2017-Nov-14 19:30N 35°11' E 139°46'611.6
2017-Nov-14 19:00N 35°16' E 139°46'611.9
2017-Nov-14 18:30N 35°21' E 139°42'3 5.9
2017-Nov-14 18:00N 35°24' E 139°41'0 0.0
2017-Nov-14 17:30N 35°24' E 139°41'0 0.0
2017-Nov-14 17:00N 35°24' E 139°41'0 0.0
2017-Nov-14 16:30N 35°24' E 139°41'0 0.0
2017-Nov-14 16:00N 35°24' E 139°41'0 0.0
2017-Nov-14 15:30N 35°24' E 139°41'0 0.0
2017-Nov-14 15:00N 35°24' E 139°41'0 0.0
2017-Nov-14 14:30N 35°24' E 139°41'0 0.0
2017-Nov-14 14:00N 35°24' E 139°41'0 0.0
2017-Nov-14 13:30N 35°24' E 139°41'0 0.0
2017-Nov-14 13:00N 35°24' E 139°41'1 2.2
2017-Nov-14 12:31N 35°23' E 139°40'0 0.4
2017-Nov-14 12:00N 35°23' E 139°40'0 0.1
2017-Nov-14 11:30N 35°23' E 139°40'0 0.0
2017-Nov-14 11:01N 35°23' E 139°40'0 0.0
2017-Nov-14 10:31N 35°23' E 139°40'0 0.0
2017-Nov-14 10:01N 35°23' E 139°40'0 0.0
2017-Nov-14 09:30N 35°23' E 139°40'0 0.1
2017-Nov-14 08:58N 35°23' E 139°40'0 0.0
2017-Nov-14 08:31N 35°23' E 139°40'3 6.5
2017-Nov-14 08:01N 35°26' E 139°42'2 3.9
2017-Nov-14 07:31N 35°28' E 139°42'0 0.0
2017-Nov-14 07:01N 35°28' E 139°42'0 0.0
2017-Nov-14 06:30N 35°28' E 139°42'0 0.0
2017-Nov-14 06:00N 35°28' E 139°42'0 0.0
2017-Nov-14 05:31N 35°28' E 139°42'0 0.0
2017-Nov-14 05:00N 35°28' E 139°42'0 0.0
2017-Nov-14 04:31N 35°28' E 139°42'0 0.0
2017-Nov-14 04:01N 35°28' E 139°42'0 0.1
2017-Nov-14 03:31N 35°28' E 139°42'4 8.5
2017-Nov-14 03:00N 35°25' E 139°46'510.8
2017-Nov-14 02:31N 35°20' E 139°44'510.5
2017-Nov-14 02:01N 35°15' E 139°47'510.6
2017-Nov-14 01:31N 35°10' E 139°46'510.2
2017-Nov-14 01:01N 35°05' E 139°45'510.2
2017-Nov-14 00:30N 34°60' E 139°44'5 9.6
2017-Nov-14 00:00N 34°55' E 139°46'  
2017-Nov-09 08:30N 35°04' E 139°44'611.8
2017-Nov-09 08:00N 35°10' E 139°46'611.5
2017-Nov-09 07:30N 35°15' E 139°46'611.2
2017-Nov-09 07:00N 35°20' E 139°43'611.5
2017-Nov-09 06:30N 35°26' E 139°43'2 4.4
2017-Nov-09 06:00N 35°28' E 139°42'0 0.1
2017-Nov-09 05:30N 35°28' E 139°42'0 0.1
2017-Nov-09 05:00N 35°28' E 139°42'0 0.0
2017-Nov-09 04:30N 35°28' E 139°42'0 0.0
2017-Nov-09 04:00N 35°28' E 139°42'0 0.0
2017-Nov-09 03:30N 35°28' E 139°42'0 0.0
2017-Nov-09 03:00N 35°28' E 139°42'0 0.0
2017-Nov-09 02:30N 35°28' E 139°42'3 5.4
2017-Nov-09 02:00N 35°25' E 139°42'2 3.5
2017-Nov-09 01:30N 35°24' E 139°41'0 0.0
2017-Nov-09 01:00N 35°24' E 139°41'0 0.0
2017-Nov-09 00:30N 35°24' E 139°41'0 0.0
2017-Nov-09 00:00N 35°24' E 139°41'0 0.0
2017-Nov-08 23:30N 35°24' E 139°41'1 2.4
2017-Nov-08 23:00N 35°23' E 139°40'0 0.0
2017-Nov-08 22:30N 35°23' E 139°40'0 0.0
2017-Nov-08 22:00N 35°23' E 139°40'0 0.7
2017-Nov-08 21:30N 35°23' E 139°41'611.1
2017-Nov-08 21:00N 35°18' E 139°44'511.0
2017-Nov-08 20:30N 35°13' E 139°47'611.0
2017-Nov-08 20:00N 35°07' E 139°45'  
Track history (hours):
 
Tides and Currents Weather Stations Pressure Air Temp Water Temp Dewpoint Dewpoint Depression Visibility Wind Speed Wind Dir Waves Ship Positions

Otagawa

Last reported at 2017-Nov-14 20:41 UTC. Time now 2017-Nov-19 14:19 UTC.
Position N 34°57' E 139°44'.

Length 70 m; draft 4.5 m.

Type: Cargo ship. MMSI: 431001328.

Date/timePositionNaut miles runAvg speedWind from/ knotsBaromVisibWave heightAir tempDewpointWater temp
2017-Nov-14 20:41N 34°57' E 139°44'211.2
2017-Nov-14 20:30N 34°59' E 139°43'611.8
2017-Nov-14 20:00N 35°05' E 139°45'611.7
2017-Nov-14 19:30N 35°11' E 139°46'611.6
2017-Nov-14 19:00N 35°16' E 139°46'611.9
2017-Nov-14 18:30N 35°21' E 139°42'3 5.9
2017-Nov-14 18:00N 35°24' E 139°41'0 0.0
2017-Nov-14 17:30N 35°24' E 139°41'0 0.0
2017-Nov-14 17:00N 35°24' E 139°41'0 0.0
2017-Nov-14 16:30N 35°24' E 139°41'0 0.0
2017-Nov-14 16:00N 35°24' E 139°41'0 0.0
2017-Nov-14 15:30N 35°24' E 139°41'0 0.0
2017-Nov-14 15:00N 35°24' E 139°41'0 0.0
2017-Nov-14 14:30N 35°24' E 139°41'0 0.0
2017-Nov-14 14:00N 35°24' E 139°41'0 0.0
2017-Nov-14 13:30N 35°24' E 139°41'0 0.0
2017-Nov-14 13:00N 35°24' E 139°41'1 2.2
2017-Nov-14 12:31N 35°23' E 139°40'0 0.4
2017-Nov-14 12:00N 35°23' E 139°40'0 0.1
2017-Nov-14 11:30N 35°23' E 139°40'0 0.0
2017-Nov-14 11:01N 35°23' E 139°40'0 0.0
2017-Nov-14 10:31N 35°23' E 139°40'0 0.0
2017-Nov-14 10:01N 35°23' E 139°40'0 0.0
2017-Nov-14 09:30N 35°23' E 139°40'0 0.1
2017-Nov-14 08:58N 35°23' E 139°40'0 0.0
2017-Nov-14 08:31N 35°23' E 139°40'3 6.5
2017-Nov-14 08:01N 35°26' E 139°42'2 3.9
2017-Nov-14 07:31N 35°28' E 139°42'0 0.0
2017-Nov-14 07:01N 35°28' E 139°42'0 0.0
2017-Nov-14 06:30N 35°28' E 139°42'0 0.0
2017-Nov-14 06:00N 35°28' E 139°42'0 0.0
2017-Nov-14 05:31N 35°28' E 139°42'0 0.0
2017-Nov-14 05:00N 35°28' E 139°42'0 0.0
2017-Nov-14 04:31N 35°28' E 139°42'0 0.0
2017-Nov-14 04:01N 35°28' E 139°42'0 0.1
2017-Nov-14 03:31N 35°28' E 139°42'4 8.5
2017-Nov-14 03:00N 35°25' E 139°46'510.8
2017-Nov-14 02:31N 35°20' E 139°44'510.5
2017-Nov-14 02:01N 35°15' E 139°47'510.6
2017-Nov-14 01:31N 35°10' E 139°46'510.2
2017-Nov-14 01:01N 35°05' E 139°45'510.2
2017-Nov-14 00:30N 34°60' E 139°44'5 9.6
2017-Nov-14 00:00N 34°55' E 139°46'  
2017-Nov-09 08:30N 35°04' E 139°44'611.8
2017-Nov-09 08:00N 35°10' E 139°46'611.5
2017-Nov-09 07:30N 35°15' E 139°46'611.2
2017-Nov-09 07:00N 35°20' E 139°43'611.5
2017-Nov-09 06:30N 35°26' E 139°43'2 4.4
2017-Nov-09 06:00N 35°28' E 139°42'0 0.1
2017-Nov-09 05:30N 35°28' E 139°42'0 0.1
2017-Nov-09 05:00N 35°28' E 139°42'0 0.0
2017-Nov-09 04:30N 35°28' E 139°42'0 0.0
2017-Nov-09 04:00N 35°28' E 139°42'0 0.0
2017-Nov-09 03:30N 35°28' E 139°42'0 0.0
2017-Nov-09 03:00N 35°28' E 139°42'0 0.0
2017-Nov-09 02:30N 35°28' E 139°42'3 5.4
2017-Nov-09 02:00N 35°25' E 139°42'2 3.5
2017-Nov-09 01:30N 35°24' E 139°41'0 0.0
2017-Nov-09 01:00N 35°24' E 139°41'0 0.0
2017-Nov-09 00:30N 35°24' E 139°41'0 0.0
2017-Nov-09 00:00N 35°24' E 139°41'0 0.0
2017-Nov-08 23:30N 35°24' E 139°41'1 2.4
2017-Nov-08 23:00N 35°23' E 139°40'0 0.0
2017-Nov-08 22:30N 35°23' E 139°40'0 0.0
2017-Nov-08 22:00N 35°23' E 139°40'0 0.7
2017-Nov-08 21:30N 35°23' E 139°41'611.1
2017-Nov-08 21:00N 35°18' E 139°44'511.0
2017-Nov-08 20:30N 35°13' E 139°47'611.0
2017-Nov-08 20:00N 35°07' E 139°45'  

Dump ship's entire track history